Terminal Aerodrome Forecast
Issued by NWS

Home | Current Version | Previous Version | Text Only | Print | Product List | Glossary On
Versions: 1 2 3 4 5 6 7 8 9 10 11 12 13 14 15
000
FTUS44 KLZK 041729
TAFHOT
TAF
KHOT 041729Z 0418/0518 35005KT 6SM -RA BR OVC008
     FM041900 32004KT 6SM BR OVC010
     FM050000 01003KT P6SM BKN020
     FM050600 07004KT 3SM BR OVC009
     FM051000 08003KT 1SM BR OVC004
     FM051500 09004KT 6SM BR BKN009=

USA.gov is the U.S. government's official web portal to all federal, state and local government web resources and services.